DRK240 VQPR-VEGT
Flight info
| Callsign | DRK240 |
|---|---|
| Flight time | 0h 33m |
| Altitude | 23000 |
| Route | PRO Y5 TAKTI DCT BOGOP DCT DUKUM W137 GGT |
| Aircraft | A319/M-SDE3FGHIRWY/LB1 |
Departure
| Time | 2026-05-04 06:11 |
|---|---|
| Airport | Paro International Airport (VQPR) |
Arrival
| Time | 2026-05-04 06:44 |
|---|---|
| Airport | Lokpriya Gopinath Bordoloi International Airport (VEGT) |
| Time | Latitude | Longitude | Altitude | Speed | Heading |
|---|---|---|---|---|---|
| 2026-05-04 05:47 | 27.40598 | 89.42122 | 7355 ft | 0 kts | 240° |
| 2026-05-04 06:03 | 27.40610 | 89.42152 | 7384 ft | 4 kts | 258° |
| 2026-05-04 06:03 | 27.40610 | 89.42181 | 7358 ft | 4 kts | 306° |
| 2026-05-04 06:05 | 27.40604 | 89.42189 | 7355 ft | 0 kts | 329° |
| 2026-05-04 06:07 | 27.40618 | 89.42180 | 7356 ft | 7 kts | 330° |
| 2026-05-04 06:07 | 27.40697 | 89.42130 | 7358 ft | 19 kts | 331° |
| 2026-05-04 06:07 | 27.40788 | 89.42072 | 7363 ft | 8 kts | 330° |
| 2026-05-04 06:08 | 27.40825 | 89.42089 | 7361 ft | 7 kts | 60° |
| 2026-05-04 06:08 | 27.40862 | 89.42125 | 7363 ft | 7 kts | 352° |
| 2026-05-04 06:08 | 27.40909 | 89.42099 | 7364 ft | 7 kts | 331° |
| 2026-05-04 06:08 | 27.40961 | 89.42067 | 7366 ft | 10 kts | 331° |
| 2026-05-04 06:09 | 27.41028 | 89.42024 | 7368 ft | 12 kts | 330° |
| 2026-05-04 06:09 | 27.41097 | 89.41980 | 7371 ft | 11 kts | 330° |
| 2026-05-04 06:11 | 27.38537 | 89.43713 | 8228 ft | 160 kts | 129° |
| 2026-05-04 06:11 | 27.37966 | 89.44807 | 8776 ft | 164 kts | 120° |
| 2026-05-04 06:13 | 27.32454 | 89.51833 | 12175 ft | 215 kts | 121° |
| 2026-05-04 06:14 | 27.22239 | 89.50725 | 14183 ft | 340 kts | 182° |
| 2026-05-04 06:14 | 27.19800 | 89.50717 | 14387 ft | 361 kts | 179° |
| 2026-05-04 06:15 | 27.17249 | 89.50843 | 14920 ft | 370 kts | 178° |
| 2026-05-04 06:15 | 27.14660 | 89.51020 | 15567 ft | 376 kts | 178° |
| 2026-05-04 06:15 | 27.12028 | 89.51201 | 16236 ft | 380 kts | 179° |
| 2026-05-04 06:15 | 27.09380 | 89.51362 | 16952 ft | 383 kts | 179° |
| 2026-05-04 06:16 | 27.06701 | 89.51506 | 17573 ft | 387 kts | 179° |
| 2026-05-04 06:16 | 27.04046 | 89.52164 | 18186 ft | 399 kts | 162° |
| 2026-05-04 06:16 | 27.01517 | 89.53507 | 18814 ft | 405 kts | 153° |
| 2026-05-04 06:16 | 26.99917 | 89.54597 | 19209 ft | 409 kts | 150° |
| 2026-05-04 06:17 | 26.96780 | 89.57081 | 19971 ft | 415 kts | 147° |
| 2026-05-04 06:17 | 26.95240 | 89.58368 | 20368 ft | 418 kts | 147° |
| 2026-05-04 06:17 | 26.92087 | 89.60960 | 21107 ft | 423 kts | 148° |
| 2026-05-04 06:17 | 26.90474 | 89.62231 | 21506 ft | 426 kts | 149° |
| 2026-05-04 06:18 | 26.87210 | 89.64687 | 22258 ft | 430 kts | 150° |
| 2026-05-04 06:18 | 26.85508 | 89.65927 | 22620 ft | 432 kts | 151° |
| 2026-05-04 06:18 | 26.82144 | 89.68344 | 22977 ft | 435 kts | 151° |
| 2026-05-04 06:20 | 26.68269 | 89.85035 | 22979 ft | 455 kts | 121° |
| 2026-05-04 06:20 | 26.66734 | 89.88133 | 22977 ft | 456 kts | 122° |
| 2026-05-04 06:21 | 26.60558 | 90.00534 | 22963 ft | 456 kts | 122° |
| 2026-05-04 06:21 | 26.59015 | 90.03632 | 22958 ft | 456 kts | 122° |
| 2026-05-04 06:22 | 26.57483 | 90.06712 | 22950 ft | 456 kts | 122° |
| 2026-05-04 06:22 | 26.55930 | 90.09827 | 22947 ft | 456 kts | 122° |
| 2026-05-04 06:25 | 26.36659 | 90.48294 | 17906 ft | 417 kts | 122° |
| 2026-05-04 06:25 | 26.35247 | 90.51101 | 17442 ft | 414 kts | 122° |
| 2026-05-04 06:26 | 26.33847 | 90.53887 | 17013 ft | 410 kts | 121° |
| 2026-05-04 06:26 | 26.32461 | 90.56643 | 16569 ft | 406 kts | 121° |
| 2026-05-04 06:26 | 26.31078 | 90.59386 | 16131 ft | 402 kts | 121° |
| 2026-05-04 06:26 | 26.29714 | 90.62095 | 15693 ft | 399 kts | 121° |
| 2026-05-04 06:27 | 26.26493 | 90.73636 | 14184 ft | 390 kts | 99° |
| 2026-05-04 06:28 | 26.26052 | 90.76612 | 13845 ft | 387 kts | 99° |
| 2026-05-04 06:28 | 26.25611 | 90.79557 | 13474 ft | 384 kts | 100° |
| 2026-05-04 06:28 | 26.25170 | 90.82478 | 13090 ft | 381 kts | 99° |
| 2026-05-04 06:28 | 26.24732 | 90.85375 | 12713 ft | 378 kts | 99° |
| 2026-05-04 06:29 | 26.24296 | 90.88247 | 12339 ft | 375 kts | 99° |
| 2026-05-04 06:29 | 26.23867 | 90.91097 | 11969 ft | 372 kts | 99° |
| 2026-05-04 06:29 | 26.23440 | 90.93929 | 11645 ft | 369 kts | 99° |
| 2026-05-04 06:29 | 26.23018 | 90.96745 | 11403 ft | 368 kts | 99° |
| 2026-05-04 06:30 | 26.22597 | 90.99551 | 11161 ft | 366 kts | 99° |
| 2026-05-04 06:30 | 26.22178 | 91.02335 | 10922 ft | 363 kts | 99° |
| 2026-05-04 06:30 | 26.21759 | 91.05098 | 10688 ft | 357 kts | 99° |
| 2026-05-04 06:30 | 26.21354 | 91.07778 | 10454 ft | 346 kts | 99° |
| 2026-05-04 06:31 | 26.20965 | 91.10354 | 10223 ft | 336 kts | 99° |
| 2026-05-04 06:31 | 26.20686 | 91.12199 | 10054 ft | 330 kts | 99° |
| 2026-05-04 06:31 | 26.20310 | 91.14667 | 10001 ft | 315 kts | 99° |
| 2026-05-04 06:31 | 26.19952 | 91.17012 | 9997 ft | 301 kts | 99° |
| 2026-05-04 06:32 | 26.19604 | 91.19303 | 9813 ft | 298 kts | 100° |
| 2026-05-04 06:33 | 26.11793 | 91.30128 | 7735 ft | 283 kts | 177° |
| 2026-05-04 06:34 | 26.09841 | 91.30343 | 7449 ft | 281 kts | 172° |
| 2026-05-04 06:34 | 26.07916 | 91.30720 | 7166 ft | 280 kts | 168° |
| 2026-05-04 06:34 | 26.06032 | 91.31250 | 6884 ft | 279 kts | 164° |
| 2026-05-04 06:34 | 26.04199 | 91.31919 | 6604 ft | 277 kts | 160° |
| 2026-05-04 06:35 | 26.02419 | 91.32721 | 6311 ft | 275 kts | 156° |
| 2026-05-04 06:36 | 25.92318 | 91.41533 | 4451 ft | 249 kts | 127° |
| 2026-05-04 06:37 | 25.91324 | 91.43043 | 4263 ft | 242 kts | 124° |
| 2026-05-04 06:37 | 25.90431 | 91.44597 | 4088 ft | 235 kts | 120° |
| 2026-05-04 06:37 | 25.89662 | 91.46169 | 3913 ft | 228 kts | 113° |
| 2026-05-04 06:37 | 25.89499 | 91.47891 | 3751 ft | 224 kts | 76° |
| 2026-05-04 06:38 | 25.90290 | 91.49330 | 3605 ft | 221 kts | 39° |
| 2026-05-04 06:38 | 25.91658 | 91.50016 | 3449 ft | 210 kts | 17° |
| 2026-05-04 06:40 | 25.98998 | 91.53303 | 2370 ft | 133 kts | 23° |
| 2026-05-04 06:40 | 25.99852 | 91.53692 | 2202 ft | 134 kts | 24° |
| 2026-05-04 06:40 | 26.00703 | 91.54078 | 2027 ft | 131 kts | 25° |
| 2026-05-04 06:40 | 26.01541 | 91.54456 | 1864 ft | 129 kts | 24° |
| 2026-05-04 06:41 | 26.02376 | 91.54833 | 1700 ft | 129 kts | 25° |
| 2026-05-04 06:41 | 26.03204 | 91.55207 | 1536 ft | 128 kts | 22° |
| 2026-05-04 06:41 | 26.04047 | 91.55586 | 1365 ft | 130 kts | 21° |
| 2026-05-04 06:41 | 26.04883 | 91.55962 | 1208 ft | 130 kts | 22° |
| 2026-05-04 06:42 | 26.05716 | 91.56337 | 1039 ft | 130 kts | 21° |
| 2026-05-04 06:42 | 26.06549 | 91.56711 | 876 ft | 127 kts | 21° |
| 2026-05-04 06:42 | 26.07384 | 91.57077 | 694 ft | 129 kts | 21° |
| 2026-05-04 06:44 | 26.11153 | 91.58755 | 174 ft | 2 kts | 109° |
| 2026-05-04 06:44 | 26.11138 | 91.58747 | 174 ft | 6 kts | 200° |
| 2026-05-04 06:44 | 26.11066 | 91.58713 | 173 ft | 14 kts | 203° |
| 2026-05-04 06:45 | 26.10970 | 91.58668 | 175 ft | 16 kts | 202° |
| 2026-05-04 06:45 | 26.10861 | 91.58620 | 176 ft | 18 kts | 201° |
| 2026-05-04 06:45 | 26.10765 | 91.58580 | 175 ft | 9 kts | 171° |
| 2026-05-04 06:45 | 26.10729 | 91.58640 | 176 ft | 11 kts | 113° |
| 2026-05-04 06:46 | 26.10698 | 91.58706 | 175 ft | 6 kts | 149° |
| 2026-05-04 06:46 | 26.10643 | 91.58696 | 174 ft | 4 kts | 201° |
| 2026-05-04 06:46 | 26.10610 | 91.58703 | 173 ft | 5 kts | 119° |
| 2026-05-04 06:46 | 26.10600 | 91.58737 | 172 ft | 3 kts | 111° |
| 2026-05-04 06:48 | 26.10594 | 91.58754 | 172 ft | 0 kts | 110° |